Time;durP1;ratioP1;P1;durP2;ratioP2;P2;SDS_P1;SDS_P2;PMS_P1;PMS_P2;Temp;Humidity;BMP_temperature;BMP_pressure;BME280_temperature;BME280_humidity;BME280_pressure;Samples;Min_cycle;Max_cycle;Signal;HPM_P1;HPM_P2
2024/01/19 00:01:51;;;;;;;6.72;6.20;;;3.90;99.90;;;;;;5085969;28;20236;-78
2024/01/19 00:04:18;;;;;;;7.00;6.40;;;3.90;99.90;;;;;;5088341;28;20229;-76
2024/01/19 00:06:46;;;;;;;6.53;6.03;;;4.00;99.90;;;;;;5087748;28;20717;-78
2024/01/19 00:09:14;;;;;;;6.72;6.18;;;4.00;99.90;;;;;;5083607;28;20201;-79
2024/01/19 00:11:42;;;;;;;7.38;6.70;;;4.00;99.90;;;;;;5077025;28;20212;-77
2024/01/19 00:14:09;;;;;;;6.57;6.07;;;4.00;99.90;;;;;;5084265;28;20217;-78
2024/01/19 00:16:42;;;;;;;6.60;6.10;;;4.00;99.90;;;;;;5082904;28;20222;-77
2024/01/19 00:19:09;;;;;;;6.35;5.80;;;4.00;99.90;;;;;;5086305;28;20210;-78
2024/01/19 00:21:43;;;;;;;5.13;4.72;;;4.00;99.90;;;;;;5083706;28;20260;-78
2024/01/19 00:24:10;;;;;;;6.00;5.50;;;4.00;99.90;;;;;;5087941;28;20202;-77
2024/01/19 00:26:37;;;;;;;6.53;6.03;;;4.10;99.90;;;;;;5084388;28;20759;-78
2024/01/19 00:29:06;;;;;;;6.03;5.63;;;4.10;99.90;;;;;;5083097;28;20205;-77
2024/01/19 00:31:35;;;;;;;5.55;5.15;;;4.10;99.90;;;;;;5084491;28;20194;-78
2024/01/19 00:34:02;;;;;;;5.90;5.40;;;4.10;99.90;;;;;;5082583;28;20202;-76
2024/01/19 00:36:29;;;;;;;6.57;6.07;;;4.20;99.90;;;;;;5081728;28;20869;-77
2024/01/19 00:38:56;;;;;;;5.90;5.50;;;4.20;99.90;;;;;;5084976;28;20210;-78
2024/01/19 00:41:23;;;;;;;5.95;5.55;;;4.20;99.90;;;;;;5084407;28;20217;-77
2024/01/19 00:43:52;;;;;;;6.95;6.35;;;4.20;99.90;;;;;;5066068;28;20221;-78
2024/01/19 00:46:21;;;;;;;6.57;6.00;;;4.20;99.90;;;;;;5060785;28;20230;-78
2024/01/19 00:48:48;;;;;;;6.60;6.00;;;4.10;99.90;;;;;;5063494;28;20214;-77
2024/01/19 00:51:15;;;;;;;6.18;5.68;;;4.10;99.90;;;;;;5061854;28;20198;-77
2024/01/19 00:53:42;;;;;;;5.63;5.22;;;4.10;99.90;;;;;;5059996;28;20222;-76
2024/01/19 00:56:09;;;;;;;6.28;5.78;;;4.10;99.90;;;;;;5062693;28;20229;-76
2024/01/19 00:58:37;;;;;;;6.10;5.60;;;4.10;99.90;;;;;;5071044;28;20221;-77
2024/01/19 01:01:04;;;;;;;5.82;5.32;;;4.00;99.90;;;;;;5079571;28;20252;-77
2024/01/19 01:03:33;;;;;;;6.35;5.85;;;4.10;99.90;;;;;;5081613;28;20851;-78
2024/01/19 01:06:00;;;;;;;7.68;7.07;;;4.10;99.90;;;;;;5083394;28;20224;-78
2024/01/19 01:08:28;;;;;;;7.28;6.57;;;4.00;99.90;;;;;;5083547;28;20221;-78
2024/01/19 01:10:56;;;;;;;7.15;6.45;;;4.00;99.90;;;;;;5084797;28;20194;-78
2024/01/19 01:13:23;;;;;;;6.78;6.10;;;4.00;99.90;;;;;;5085493;28;20229;-77
2024/01/19 01:15:50;;;;;;;7.35;6.75;;;4.00;99.90;;;;;;5093154;28;20586;-78
2024/01/19 01:18:17;;;;;;;8.70;8.00;;;3.90;99.90;;;;;;5080142;28;20209;-76
2024/01/19 01:20:46;;;;;;;7.55;6.90;;;3.90;99.90;;;;;;5078103;28;20669;-77
2024/01/19 01:23:13;;;;;;;8.48;7.78;;;3.90;99.90;;;;;;5081965;28;20796;-77
2024/01/19 01:25:39;;;;;;;7.22;6.70;;;3.90;99.90;;;;;;5083786;28;20740;-76
2024/01/19 01:28:06;;;;;;;7.57;6.97;;;3.90;99.90;;;;;;5084875;28;20217;-77
2024/01/19 01:30:33;;;;;;;6.22;5.72;;;4.00;99.90;;;;;;5085513;28;20202;-77
2024/01/19 01:33:00;;;;;;;6.30;5.80;;;4.00;99.90;;;;;;5078930;28;20222;-77
2024/01/19 01:35:27;;;;;;;6.00;5.60;;;4.10;99.90;;;;;;5084548;28;20606;-77
2024/01/19 01:37:55;;;;;;;5.80;5.40;;;4.10;99.90;;;;;;5082357;28;20828;-78
2024/01/19 01:40:22;;;;;;;6.45;5.95;;;4.10;99.90;;;;;;5082707;28;20202;-78
2024/01/19 01:42:49;;;;;;;5.65;5.20;;;4.10;99.90;;;;;;5086309;28;20658;-78
2024/01/19 01:45:17;;;;;;;6.22;5.80;;;4.10;99.90;;;;;;5081814;28;20284;-78
2024/01/19 01:47:44;;;;;;;6.05;5.55;;;4.10;99.90;;;;;;5083969;28;20225;-76
2024/01/19 01:50:11;;;;;;;5.60;5.20;;;4.10;99.90;;;;;;5085300;28;20956;-78
2024/01/19 01:52:38;;;;;;;6.47;5.95;;;4.10;99.90;;;;;;5083715;28;20245;-78
2024/01/19 01:55:07;;;;;;;6.53;6.03;;;4.10;99.90;;;;;;5090966;28;20205;-77
2024/01/19 01:57:34;;;;;;;5.55;5.15;;;4.10;99.90;;;;;;5087764;28;20622;-77
2024/01/19 02:00:02;;;;;;;5.80;5.40;;;4.10;99.90;;;;;;5087480;28;20203;-78
2024/01/19 02:02:30;;;;;;;6.28;5.78;;;4.00;99.90;;;;;;5089013;28;20221;-78
2024/01/19 02:04:57;;;;;;;5.82;5.32;;;4.00;99.90;;;;;;5089979;28;20206;-77
2024/01/19 02:07:24;;;;;;;5.75;5.35;;;4.00;99.90;;;;;;5088333;28;20534;-78
2024/01/19 02:09:51;;;;;;;5.72;5.32;;;4.00;99.90;;;;;;5087483;28;20201;-78
2024/01/19 02:12:19;;;;;;;5.78;5.38;;;4.10;99.90;;;;;;5086413;28;20209;-78
2024/01/19 02:14:46;;;;;;;6.25;5.75;;;4.10;99.90;;;;;;5089085;28;20208;-77
2024/01/19 02:17:14;;;;;;;6.72;6.22;;;4.10;99.90;;;;;;5090318;28;20274;-79
2024/01/19 02:19:41;;;;;;;6.80;6.22;;;4.10;99.90;;;;;;5083240;28;20201;-78
2024/01/19 02:22:08;;;;;;;6.60;6.00;;;4.10;99.90;;;;;;5078260;28;20914;-78
2024/01/19 02:24:37;;;;;;;6.80;6.30;;;4.10;99.90;;;;;;5089989;28;20193;-79
2024/01/19 02:27:04;;;;;;;8.00;7.30;;;4.10;99.90;;;;;;5087883;28;20240;-77
2024/01/19 02:29:31;;;;;;;8.55;7.75;;;4.10;99.90;;;;;;5085612;28;20670;-79
2024/01/19 02:31:58;;;;;;;9.02;8.13;;;4.00;99.90;;;;;;5085249;28;20840;-78
2024/01/19 02:34:26;;;;;;;8.40;7.70;;;3.90;99.90;;;;;;5083120;28;20194;-79
2024/01/19 02:36:54;;;;;;;8.18;7.47;;;3.90;99.90;;;;;;5079761;28;20233;-79
2024/01/19 02:39:21;;;;;;;7.20;6.60;;;4.00;99.90;;;;;;5082175;28;20212;-77
2024/01/19 02:41:49;;;;;;;6.40;5.88;;;4.00;99.90;;;;;;5084290;28;20237;-78
2024/01/19 02:44:17;;;;;;;6.82;6.32;;;4.00;99.90;;;;;;5079338;28;20202;-79
2024/01/19 02:46:44;;;;;;;6.80;6.20;;;4.00;99.90;;;;;;5080900;28;20224;-78
2024/01/19 02:49:11;;;;;;;6.20;5.65;;;4.10;99.90;;;;;;5091209;28;20212;-78
2024/01/19 02:51:38;;;;;;;5.68;5.28;;;4.10;99.90;;;;;;5085590;28;20197;-76
2024/01/19 02:54:05;;;;;;;6.30;5.90;;;4.10;99.90;;;;;;5084938;28;20695;-76
2024/01/19 02:56:32;;;;;;;5.65;5.25;;;4.10;99.90;;;;;;5085473;28;20222;-76
2024/01/19 02:59:00;;;;;;;5.68;5.28;;;4.20;99.90;;;;;;5086950;28;20197;-78
2024/01/19 03:01:27;;;;;;;6.05;5.63;;;4.20;99.90;;;;;;5086047;28;20198;-77
2024/01/19 03:03:54;;;;;;;6.07;5.57;;;4.30;99.90;;;;;;5089030;28;20255;-77
2024/01/19 03:06:23;;;;;;;6.68;6.18;;;4.30;99.90;;;;;;5089745;28;20218;-78
2024/01/19 03:08:50;;;;;;;6.72;6.18;;;4.30;99.90;;;;;;5083458;28;20709;-79
2024/01/19 03:11:17;;;;;;;6.30;5.80;;;4.30;99.90;;;;;;5084736;28;20250;-78
2024/01/19 03:13:44;;;;;;;6.32;5.82;;;4.30;99.90;;;;;;5087584;28;20210;-78
2024/01/19 03:16:12;;;;;;;6.53;6.03;;;4.40;99.90;;;;;;5094421;28;20251;-79
2024/01/19 03:18:39;;;;;;;6.03;5.63;;;4.40;99.90;;;;;;5088058;27;20228;-77
2024/01/19 03:21:06;;;;;;;6.25;5.75;;;4.40;99.90;;;;;;5084179;28;20205;-78
2024/01/19 03:23:33;;;;;;;5.68;5.28;;;4.40;99.90;;;;;;5087746;28;20218;-76
2024/01/19 03:26:01;;;;;;;6.38;5.88;;;4.40;99.90;;;;;;5092370;28;20225;-75
2024/01/19 03:28:28;;;;;;;6.65;6.15;;;4.50;99.90;;;;;;5091526;27;20776;-76
2024/01/19 03:30:55;;;;;;;6.78;6.28;;;4.50;99.90;;;;;;5090564;28;20197;-78
2024/01/19 03:33:24;;;;;;;7.38;6.80;;;4.50;99.90;;;;;;5083891;28;20226;-78
2024/01/19 03:35:51;;;;;;;7.97;7.30;;;4.40;99.90;;;;;;5087300;28;20909;-79
2024/01/19 03:38:18;;;;;;;9.70;8.80;;;4.40;99.90;;;;;;5086564;28;20222;-78
2024/01/19 03:40:47;;;;;;;8.07;7.38;;;4.40;99.90;;;;;;5089194;28;20265;-78
2024/01/19 03:43:14;;;;;;;8.57;7.85;;;4.40;99.90;;;;;;5084240;28;20217;-78
2024/01/19 03:45:41;;;;;;;7.47;6.88;;;4.40;99.90;;;;;;5081279;28;20276;-78
2024/01/19 03:48:09;;;;;;;6.10;5.63;;;4.40;99.90;;;;;;5080225;28;20266;-78
2024/01/19 03:50:38;;;;;;;5.10;4.70;;;4.40;99.90;;;;;;5088145;28;20201;-79
2024/01/19 03:53:05;;;;;;;4.78;4.40;;;4.50;99.90;;;;;;5087858;28;20217;-78
2024/01/19 03:55:32;;;;;;;3.78;3.58;;;4.60;99.90;;;;;;5079456;28;20593;-78
2024/01/19 03:57:59;;;;;;;3.78;3.58;;;4.80;99.90;;;;;;5078839;28;20256;-77
2024/01/19 04:00:26;;;;;;;3.42;3.22;;;4.80;99.90;;;;;;5082054;28;20243;-76
2024/01/19 04:02:53;;;;;;;3.00;2.90;;;4.80;99.90;;;;;;5086866;28;20826;-78
2024/01/19 04:05:20;;;;;;;3.65;3.33;;;4.80;99.90;;;;;;5084786;28;20263;-75
2024/01/19 04:07:49;;;;;;;4.40;4.10;;;4.90;99.90;;;;;;5079596;28;20222;-78
2024/01/19 04:10:16;;;;;;;4.40;4.15;;;4.80;99.90;;;;;;5084520;28;20197;-78
2024/01/19 04:12:43;;;;;;;3.83;3.63;;;4.80;99.90;;;;;;5086575;28;20749;-77
2024/01/19 04:15:11;;;;;;;3.80;3.60;;;4.70;99.90;;;;;;5090160;28;20229;-76
2024/01/19 04:17:38;;;;;;;3.60;3.40;;;4.70;99.90;;;;;;5087534;28;20223;-76
2024/01/19 04:20:07;;;;;;;3.92;3.72;;;4.70;99.90;;;;;;5082947;28;20224;-78
2024/01/19 04:22:34;;;;;;;3.78;3.50;;;4.70;99.90;;;;;;5081320;28;20229;-77
2024/01/19 04:25:03;;;;;;;3.60;3.40;;;4.80;99.90;;;;;;5081220;28;20198;-78
2024/01/19 04:27:30;;;;;;;3.35;3.15;;;4.80;99.90;;;;;;5085004;28;20215;-77
2024/01/19 04:29:57;;;;;;;3.58;3.38;;;4.80;99.90;;;;;;5078676;28;20206;-78
2024/01/19 04:32:24;;;;;;;3.30;3.10;;;4.70;99.90;;;;;;5084717;28;20335;-78
2024/01/19 04:34:51;;;;;;;2.95;2.75;;;4.70;99.90;;;;;;5086906;28;20205;-77
2024/01/19 04:37:18;;;;;;;3.10;3.00;;;4.70;99.90;;;;;;5081537;28;20225;-79
2024/01/19 04:39:45;;;;;;;2.97;2.83;;;4.70;99.90;;;;;;5080072;28;20201;-77
2024/01/19 04:42:14;;;;;;;3.20;3.00;;;4.70;99.90;;;;;;5082008;28;20226;-78
2024/01/19 04:44:41;;;;;;;3.25;3.05;;;4.70;99.90;;;;;;5086279;28;20266;-78
2024/01/19 04:47:09;;;;;;;2.58;2.47;;;4.70;99.90;;;;;;5083028;28;20252;-78
2024/01/19 04:49:36;;;;;;;2.55;2.45;;;4.70;99.90;;;;;;5080328;28;20213;-76
2024/01/19 04:52:05;;;;;;;3.00;2.80;;;4.60;99.90;;;;;;5082887;28;20224;-77
2024/01/19 04:54:32;;;;;;;2.85;2.75;;;4.60;99.90;;;;;;5085093;28;20202;-78
2024/01/19 04:56:59;;;;;;;2.60;2.50;;;4.70;99.90;;;;;;5083892;28;20589;-79
2024/01/19 04:59:28;;;;;;;2.60;2.50;;;4.70;99.90;;;;;;5081183;28;20198;-75
2024/01/19 05:01:56;;;;;;;2.30;2.20;;;4.80;99.90;;;;;;5080036;28;20221;-78
2024/01/19 05:04:23;;;;;;;2.25;2.15;;;4.80;99.90;;;;;;5081945;28;20217;-78
2024/01/19 05:06:50;;;;;;;2.55;2.45;;;4.80;99.90;;;;;;5074655;28;20242;-75
2024/01/19 05:09:17;;;;;;;2.33;2.22;;;4.80;99.90;;;;;;5061160;28;20901;-77
2024/01/19 05:11:44;;;;;;;2.25;2.15;;;4.80;99.90;;;;;;5062037;28;20213;-77
2024/01/19 05:14:11;;;;;;;2.25;2.15;;;4.80;99.90;;;;;;5063518;28;20206;-77
2024/01/19 05:16:40;;;;;;;2.30;2.20;;;4.80;99.90;;;;;;5059756;28;20226;-77
2024/01/19 05:19:08;;;;;;;2.40;2.30;;;4.70;99.90;;;;;;5076549;28;20212;-75
2024/01/19 05:21:35;;;;;;;2.55;2.45;;;4.70;99.90;;;;;;5074202;28;20194;-77
2024/01/19 05:24:02;;;;;;;2.80;2.60;;;4.70;99.90;;;;;;5084692;28;20214;-78
2024/01/19 05:26:29;;;;;;;3.00;2.80;;;4.70;99.90;;;;;;5078302;28;20217;-78
2024/01/19 05:28:56;;;;;;;3.08;2.88;;;4.60;99.90;;;;;;5082062;28;20217;-77
2024/01/19 05:31:23;;;;;;;3.85;3.60;;;4.60;99.90;;;;;;5076691;28;21081;-77
2024/01/19 05:33:52;;;;;;;3.47;3.28;;;4.60;99.90;;;;;;5075099;28;20232;-79
2024/01/19 05:36:20;;;;;;;4.22;3.92;;;4.50;99.90;;;;;;5079858;28;20256;-80
2024/01/19 05:38:47;;;;;;;4.63;4.30;;;4.50;99.90;;;;;;5083001;28;20248;-78
2024/01/19 05:41:19;;;;;;;4.03;3.72;;;4.50;99.90;;;;;;5078582;28;20223;-78
2024/01/19 05:43:47;;;;;;;4.43;4.03;;;4.50;99.90;;;;;;5081968;28;20839;-77
2024/01/19 05:46:14;;;;;;;4.47;4.07;;;4.50;99.90;;;;;;5079788;28;20221;-77
2024/01/19 05:48:41;;;;;;;4.85;4.55;;;4.50;99.90;;;;;;5075664;28;20217;-77
2024/01/19 05:51:14;;;;;;;4.22;3.92;;;4.60;99.90;;;;;;5075852;28;20213;-77
2024/01/19 05:53:41;;;;;;;4.80;4.50;;;4.60;99.90;;;;;;5077700;28;20241;-76
2024/01/19 05:56:08;;;;;;;4.28;3.97;;;4.60;99.90;;;;;;5078553;28;20256;-78
2024/01/19 05:58:35;;;;;;;4.05;3.75;;;4.60;99.90;;;;;;5078805;28;20226;-76
2024/01/19 06:01:03;;;;;;;4.15;3.88;;;4.60;99.90;;;;;;5081261;28;20201;-77
2024/01/19 06:03:30;;;;;;;4.60;4.30;;;4.50;99.90;;;;;;5065251;28;20283;-77
2024/01/19 06:05:58;;;;;;;4.72;4.32;;;4.50;99.90;;;;;;5061895;28;20249;-78
2024/01/19 06:08:26;;;;;;;4.97;4.55;;;4.40;99.90;;;;;;5062882;28;20225;-75
2024/01/19 06:10:53;;;;;;;6.50;5.90;;;4.30;99.90;;;;;;5065586;28;20735;-77
2024/01/19 06:13:20;;;;;;;5.95;5.45;;;4.20;99.90;;;;;;5065930;28;20229;-77
2024/01/19 06:15:47;;;;;;;5.50;5.10;;;4.10;99.90;;;;;;5063603;28;20222;-76
2024/01/19 06:18:14;;;;;;;5.00;4.65;;;4.00;99.90;;;;;;5075092;28;20228;-76
2024/01/19 06:20:42;;;;;;;4.80;4.40;;;4.00;99.90;;;;;;5077449;28;20204;-77
2024/01/19 06:23:09;;;;;;;5.47;5.07;;;3.90;99.90;;;;;;5081981;28;20326;-76
2024/01/19 06:25:38;;;;;;;5.78;5.28;;;3.90;99.90;;;;;;5080735;28;20228;-77
2024/01/19 06:28:06;;;;;;;5.70;5.25;;;3.90;99.90;;;;;;5082383;28;20230;-76
2024/01/19 06:30:34;;;;;;;5.50;5.07;;;3.90;99.90;;;;;;5078262;28;20228;-77
2024/01/19 06:33:01;;;;;;;4.53;4.13;;;3.90;99.90;;;;;;5079874;28;20218;-77
2024/01/19 06:35:28;;;;;;;4.15;3.95;;;3.90;99.90;;;;;;5085426;28;20283;-77
2024/01/19 06:37:55;;;;;;;4.30;4.00;;;3.90;99.90;;;;;;5084872;28;20213;-77
2024/01/19 06:40:23;;;;;;;4.55;4.25;;;3.90;99.90;;;;;;5087395;28;20209;-76
2024/01/19 06:42:52;;;;;;;4.40;4.10;;;3.90;99.90;;;;;;5084607;28;21659;-78
2024/01/19 06:45:19;;;;;;;4.97;4.57;;;4.00;99.90;;;;;;5084005;28;20246;-76
2024/01/19 06:47:47;;;;;;;6.72;6.20;;;4.00;99.90;;;;;;5086329;28;20610;-77
2024/01/19 06:50:14;;;;;;;5.25;4.75;;;3.90;99.90;;;;;;5088577;28;20209;-78
2024/01/19 06:52:43;;;;;;;5.07;4.57;;;3.90;99.90;;;;;;5088200;28;20222;-78
2024/01/19 06:55:10;;;;;;;4.43;4.10;;;3.80;99.90;;;;;;5088816;28;20270;-78
2024/01/19 06:57:37;;;;;;;3.85;3.60;;;3.90;99.90;;;;;;5084694;28;20225;-77
2024/01/19 07:00:07;;;;;;;4.40;4.20;;;4.00;99.90;;;;;;5088034;28;20205;-77
2024/01/19 07:02:34;;;;;;;4.95;4.55;;;4.20;99.90;;;;;;5083100;28;20217;-76
2024/01/19 07:05:01;;;;;;;4.10;3.80;;;4.20;99.90;;;;;;5091052;28;20213;-78
2024/01/19 07:07:28;;;;;;;3.70;3.40;;;4.20;99.90;;;;;;5083955;28;20244;-78
2024/01/19 07:09:55;;;;;;;3.47;3.28;;;4.30;99.90;;;;;;5087522;28;20198;-78
2024/01/19 07:12:22;;;;;;;3.33;3.13;;;4.40;99.90;;;;;;5085253;28;20229;-79
2024/01/19 07:14:49;;;;;;;3.55;3.35;;;4.50;99.90;;;;;;5091406;28;22038;-77
2024/01/19 07:17:18;;;;;;;3.40;3.20;;;4.50;99.90;;;;;;5087541;28;20217;-77
2024/01/19 07:19:45;;;;;;;2.83;2.72;;;4.60;99.90;;;;;;5082258;28;20205;-77
2024/01/19 07:22:12;;;;;;;2.58;2.47;;;4.70;99.90;;;;;;5078673;28;20272;-77
2024/01/19 07:24:39;;;;;;;2.53;2.42;;;4.90;99.90;;;;;;5081450;28;20217;-78
2024/01/19 07:27:06;;;;;;;2.90;2.80;;;5.00;99.90;;;;;;5089453;28;20264;-78
2024/01/19 07:29:33;;;;;;;2.35;2.25;;;5.20;99.90;;;;;;5087154;28;20193;-79
2024/01/19 07:32:00;;;;;;;2.45;2.35;;;5.30;99.90;;;;;;5083031;27;20232;-79
2024/01/19 07:34:29;;;;;;;2.50;2.40;;;5.50;99.90;;;;;;5090398;28;20885;-78
2024/01/19 07:36:56;;;;;;;2.15;2.05;;;5.50;99.90;;;;;;5086592;27;20229;-76
2024/01/19 07:39:26;;;;;;;2.78;2.67;;;5.60;99.90;;;;;;5085176;28;20390;-77
2024/01/19 07:41:53;;;;;;;2.40;2.30;;;5.60;99.90;;;;;;5083537;28;20236;-78
2024/01/19 07:44:20;;;;;;;2.45;2.35;;;5.70;99.90;;;;;;5085910;28;20325;-80
2024/01/19 07:46:48;;;;;;;3.45;2.53;;;5.70;99.90;;;;;;5079554;28;20222;-78
2024/01/19 07:49:20;;;;;;;2.50;2.40;;;5.80;99.90;;;;;;5086052;28;20206;-75
2024/01/19 07:51:49;;;;;;;2.70;2.50;;;5.80;99.90;;;;;;5080434;28;20209;-77
2024/01/19 07:54:17;;;;;;;2.30;2.20;;;5.90;99.90;;;;;;5081930;28;20201;-76
2024/01/19 07:56:44;;;;;;;2.53;2.42;;;5.90;99.90;;;;;;5072123;28;20221;-78
2024/01/19 07:59:11;;;;;;;3.15;2.95;;;5.90;99.90;;;;;;5080142;28;20432;-76
2024/01/19 08:01:39;;;;;;;2.90;2.80;;;6.00;99.90;;;;;;5078825;28;20724;-76
2024/01/19 08:04:06;;;;;;;2.80;2.60;;;6.00;99.90;;;;;;5078376;28;20221;-79
2024/01/19 08:06:33;;;;;;;2.97;2.88;;;6.00;99.90;;;;;;5079172;28;20222;-75
2024/01/19 08:09:02;;;;;;;2.50;2.40;;;6.00;99.90;;;;;;5075147;28;20937;-76
2024/01/19 08:11:29;;;;;;;2.67;2.58;;;6.10;99.90;;;;;;5073432;28;20437;-76
2024/01/19 08:13:56;;;;;;;2.40;2.30;;;6.10;99.90;;;;;;5076578;28;20224;-78
2024/01/19 08:16:23;;;;;;;2.22;2.13;;;6.20;99.90;;;;;;5074404;28;20217;-77
2024/01/19 08:18:50;;;;;;;2.20;2.10;;;6.20;99.90;;;;;;5075685;28;20229;-78
2024/01/19 08:21:17;;;;;;;2.25;2.15;;;6.30;99.90;;;;;;5079538;28;20202;-76
2024/01/19 08:23:44;;;;;;;2.50;2.40;;;6.40;99.90;;;;;;5083120;28;20628;-79
2024/01/19 08:26:13;;;;;;;2.38;2.28;;;6.80;99.90;;;;;;5084087;28;20221;-79
2024/01/19 08:28:40;;;;;;;2.75;2.60;;;7.00;99.90;;;;;;5079579;28;20223;-77
2024/01/19 08:31:12;;;;;;;2.20;2.10;;;7.20;99.90;;;;;;5075762;28;20221;-80
2024/01/19 08:33:39;;;;;;;2.40;2.30;;;7.10;99.90;;;;;;5077109;28;20225;-79
2024/01/19 08:36:07;;;;;;;2.50;2.30;;;7.00;99.90;;;;;;5079617;28;20229;-79
2024/01/19 08:38:34;;;;;;;2.33;2.22;;;6.90;99.90;;;;;;5075446;28;20222;-77
2024/01/19 08:41:02;;;;;;;2.13;2.03;;;6.80;99.90;;;;;;5083765;28;20276;-79
2024/01/19 08:43:30;;;;;;;2.28;2.17;;;6.70;99.90;;;;;;5077202;28;20216;-77
2024/01/19 08:45:57;;;;;;;2.40;2.30;;;6.70;99.90;;;;;;5077323;28;20218;-76
2024/01/19 08:48:25;;;;;;;2.40;2.30;;;6.60;99.90;;;;;;5080203;28;20226;-79
2024/01/19 08:50:52;;;;;;;2.28;2.17;;;6.60;99.90;;;;;;5077495;28;20205;-75
2024/01/19 08:53:20;;;;;;;2.30;2.20;;;6.60;99.90;;;;;;5076671;28;20640;-75
2024/01/19 08:55:48;;;;;;;2.40;2.30;;;6.60;99.90;;;;;;5071343;28;20765;-79
2024/01/19 08:58:16;;;;;;;2.30;2.20;;;6.60;99.90;;;;;;5077104;28;20771;-78
2024/01/19 09:00:45;;;;;;;2.60;2.50;;;6.70;99.90;;;;;;5074149;28;20206;-79
2024/01/19 09:03:12;;;;;;;2.30;2.20;;;6.80;99.90;;;;;;5080959;28;20228;-79
2024/01/19 09:05:39;;;;;;;2.45;2.35;;;6.90;99.90;;;;;;5078674;28;20221;-78
2024/01/19 09:08:06;;;;;;;2.53;2.42;;;7.10;99.90;;;;;;5076275;28;20658;-79
2024/01/19 09:10:34;;;;;;;2.42;2.33;;;7.20;99.90;;;;;;5075115;28;20883;-76
2024/01/19 09:13:01;;;;;;;2.03;1.92;;;7.20;99.90;;;;;;5080905;28;20344;-78
2024/01/19 09:15:28;;;;;;;2.05;1.95;;;7.20;99.90;;;;;;5077771;28;20395;-78
2024/01/19 09:17:56;;;;;;;2.42;2.33;;;7.20;99.90;;;;;;5075314;27;20213;-77
2024/01/19 09:20:24;;;;;;;5.68;5.18;;;7.30;99.90;;;;;;5075898;28;20313;-79
2024/01/19 09:22:52;;;;;;;3.05;2.88;;;7.30;99.90;;;;;;5080244;28;20228;-78
2024/01/19 09:25:19;;;;;;;2.28;2.17;;;7.30;99.90;;;;;;5082061;28;20209;-76
2024/01/19 09:27:46;;;;;;;2.22;2.13;;;7.40;99.90;;;;;;5074319;28;20668;-76
2024/01/19 09:30:14;;;;;;;2.20;2.10;;;7.50;99.90;;;;;;5071308;28;20220;-79
2024/01/19 09:32:41;;;;;;;2.88;2.67;;;7.50;99.90;;;;;;5083671;28;20213;-78
2024/01/19 09:35:10;;;;;;;2.22;2.13;;;7.40;99.90;;;;;;5080322;28;20197;-79
2024/01/19 09:37:37;;;;;;;2.40;2.30;;;7.30;99.90;;;;;;5079500;28;20244;-77
2024/01/19 09:40:04;;;;;;;2.58;2.47;;;7.20;99.90;;;;;;5077032;28;20205;-77
2024/01/19 09:42:34;;;;;;;2.63;2.45;;;7.10;99.90;;;;;;5074915;28;20221;-78
2024/01/19 09:45:04;;;;;;;2.38;2.28;;;7.00;99.90;;;;;;5072667;28;20834;-78
2024/01/19 09:47:38;;;;;;;2.50;2.40;;;7.00;99.90;;;;;;5079831;28;20268;-75
2024/01/19 09:50:06;;;;;;;3.13;2.83;;;7.00;99.90;;;;;;5074516;28;20228;-75
2024/01/19 09:52:46;;;;;;;2.78;2.58;;;7.00;99.90;;;;;;5075667;28;20307;-77
2024/01/19 09:55:13;;;;;;;3.95;3.67;;;7.10;99.90;;;;;;5075687;28;20223;-76
2024/01/19 09:57:46;;;;;;;4.10;3.80;;;7.10;99.90;;;;;;5078378;28;20223;-78
2024/01/19 10:00:14;;;;;;;2.40;2.30;;;7.20;99.90;;;;;;5074755;28;20292;-76
2024/01/19 10:02:46;;;;;;;2.60;2.50;;;7.30;99.90;;;;;;5077546;28;20227;-77
2024/01/19 10:05:14;;;;;;;2.38;2.28;;;7.30;99.90;;;;;;5079364;28;20301;-76
2024/01/19 10:07:44;;;;;;;2.97;2.88;;;7.30;99.90;;;;;;5077216;28;20343;-76
2024/01/19 10:10:12;;;;;;;2.53;2.42;;;7.40;99.90;;;;;;5080215;28;20202;-76
2024/01/19 10:12:39;;;;;;;2.30;2.20;;;7.50;99.90;;;;;;5078802;28;20801;-77
2024/01/19 10:15:10;;;;;;;2.10;2.00;;;7.40;99.90;;;;;;5084174;28;21252;-75
2024/01/19 10:17:38;;;;;;;2.40;2.30;;;7.40;99.90;;;;;;5079943;28;20641;-76
2024/01/19 10:20:06;;;;;;;2.10;2.00;;;7.40;99.90;;;;;;5076499;28;20209;-76
2024/01/19 10:22:34;;;;;;;2.60;2.40;;;7.30;99.90;;;;;;5073723;27;20224;-79
2024/01/19 10:25:04;;;;;;;4.70;4.40;;;7.30;99.90;;;;;;5082072;28;20735;-79
2024/01/19 10:27:44;;;;;;;3.85;3.55;;;7.20;99.90;;;;;;5086344;28;20214;-79
2024/01/19 10:30:13;;;;;;;6.20;5.55;;;7.10;99.90;;;;;;5080872;28;20198;-77
2024/01/19 10:32:41;;;;;;;4.97;4.57;;;7.10;99.90;;;;;;5081760;28;20971;-77
2024/01/19 10:35:11;;;;;;;4.50;4.20;;;7.10;99.90;;;;;;5082962;28;20197;-78
2024/01/19 10:37:38;;;;;;;3.10;2.85;;;7.10;99.90;;;;;;5083844;28;20220;-80
2024/01/19 10:40:17;;;;;;;2.97;2.78;;;7.10;99.90;;;;;;5075843;28;22675;-80
2024/01/19 10:42:46;;;;;;;3.80;3.60;;;7.10;99.90;;;;;;5080088;28;21010;-77
2024/01/19 10:45:21;;;;;;;5.78;3.72;;;7.10;99.90;;;;;;5084274;28;20221;-78
2024/01/19 10:47:50;;;;;;;2.60;2.50;;;7.20;99.90;;;;;;5075197;28;20237;-78
2024/01/19 10:50:19;;;;;;;2.30;2.20;;;7.20;99.90;;;;;;5085520;28;21708;-78
2024/01/19 10:52:48;;;;;;;2.50;2.40;;;7.20;99.90;;;;;;5085106;28;20783;-77
2024/01/19 10:55:21;;;;;;;4.60;2.60;;;7.30;99.90;;;;;;5080735;28;20209;-78
2024/01/19 10:57:52;;;;;;;2.17;2.08;;;7.30;99.90;;;;;;5079927;28;20818;-77
2024/01/19 11:00:21;;;;;;;2.17;2.08;;;7.30;99.90;;;;;;5087497;28;20319;-76
2024/01/19 11:02:49;;;;;;;2.05;1.95;;;7.30;99.90;;;;;;5084815;28;20256;-76
2024/01/19 11:05:18;;;;;;;2.10;2.00;;;7.30;99.90;;;;;;5087744;28;20270;-75
2024/01/19 11:07:45;;;;;;;2.38;2.28;;;7.30;99.90;;;;;;5076545;28;20644;-78
2024/01/19 11:10:13;;;;;;;2.30;2.20;;;7.30;99.90;;;;;;5084647;27;20206;-76
2024/01/19 11:12:48;;;;;;;4.13;2.38;;;7.40;99.90;;;;;;5083191;28;20244;-76
2024/01/19 11:15:25;;;;;;;3.80;3.60;;;7.30;99.90;;;;;;5076266;28;20233;-76
2024/01/19 11:17:55;;;;;;;2.60;2.50;;;7.30;99.90;;;;;;5076454;28;20227;-79
2024/01/19 11:20:24;;;;;;;2.20;2.10;;;7.20;99.90;;;;;;5075740;28;20204;-76
2024/01/19 11:22:52;;;;;;;2.33;2.13;;;7.20;99.90;;;;;;5078035;28;21815;-75
2024/01/19 11:25:26;;;;;;;2.25;2.15;;;7.10;99.90;;;;;;5084641;28;20248;-77
2024/01/19 11:28:02;;;;;;;2.15;2.05;;;7.10;99.90;;;;;;5072771;28;20481;-76
2024/01/19 11:30:38;;;;;;;2.10;2.00;;;7.10;99.90;;;;;;5078707;28;20197;-77
2024/01/19 11:33:17;;;;;;;1.95;1.85;;;7.10;99.90;;;;;;5072106;28;21193;-76
2024/01/19 11:35:48;;;;;;;1.85;1.85;;;7.10;99.90;;;;;;5080562;28;20226;-76
2024/01/19 11:38:43;;;;;;;2.20;2.10;;;7.00;99.90;;;;;;5077610;28;20298;-76
2024/01/19 11:41:11;;;;;;;2.10;2.00;;;7.10;99.90;;;;;;5074891;28;21694;-75
2024/01/19 11:43:43;;;;;;;2.33;2.22;;;7.10;99.90;;;;;;5077059;28;20309;-76
2024/01/19 11:46:11;;;;;;;4.00;2.50;;;7.00;99.90;;;;;;5079403;28;20220;-78
2024/01/19 11:48:43;;;;;;;2.42;2.22;;;7.00;99.90;;;;;;5086746;28;20224;-79
2024/01/19 11:51:30;;;;;;;2.50;2.40;;;7.00;99.90;;;;;;5079304;28;20600;-76
2024/01/19 11:53:58;;;;;;;2.22;2.13;;;7.00;99.90;;;;;;5078361;28;20240;-76
2024/01/19 11:56:26;;;;;;;2.45;2.35;;;6.90;99.90;;;;;;5075309;28;20221;-77
2024/01/19 11:58:55;;;;;;;2.22;2.13;;;6.90;99.90;;;;;;5082959;28;20245;-79
2024/01/19 12:01:23;;;;;;;2.08;1.98;;;6.90;99.90;;;;;;5086355;28;20202;-78
2024/01/19 12:03:54;;;;;;;2.28;2.17;;;6.90;99.90;;;;;;5081062;27;20441;-78
2024/01/19 12:06:21;;;;;;;2.13;2.03;;;6.90;99.90;;;;;;5076117;28;20213;-77
2024/01/19 12:09:05;;;;;;;2.72;2.33;;;6.90;99.90;;;;;;5070067;28;20697;-77
2024/01/19 12:11:33;;;;;;;2.10;2.00;;;6.90;99.90;;;;;;5068175;28;20673;-77
2024/01/19 12:14:03;;;;;;;2.38;2.28;;;6.90;99.90;;;;;;5080013;28;20197;-77
2024/01/19 12:16:31;;;;;;;2.50;2.40;;;6.90;99.90;;;;;;5070962;28;20251;-75
2024/01/19 12:18:59;;;;;;;2.40;2.28;;;6.90;99.90;;;;;;5078101;28;20660;-76
2024/01/19 12:21:27;;;;;;;2.20;2.10;;;6.90;99.90;;;;;;5078599;28;20741;-76
2024/01/19 12:23:55;;;;;;;1.85;1.80;;;6.90;99.90;;;;;;5085564;27;20222;-74
2024/01/19 12:26:23;;;;;;;2.40;2.30;;;6.90;99.90;;;;;;5071807;28;20217;-77
2024/01/19 12:28:50;;;;;;;2.88;2.67;;;6.80;99.90;;;;;;5078236;28;21079;-76
2024/01/19 12:31:27;;;;;;;2.50;2.40;;;6.80;99.90;;;;;;5074117;28;20206;-77
2024/01/19 12:33:54;;;;;;;2.58;2.47;;;6.80;99.90;;;;;;5074318;28;20222;-74
2024/01/19 12:36:25;;;;;;;2.40;2.30;;;6.80;99.90;;;;;;5078110;28;20917;-77
2024/01/19 12:39:11;;;;;;;2.67;2.47;;;6.80;99.90;;;;;;5077442;28;20221;-75
2024/01/19 12:41:38;;;;;;;2.45;2.35;;;6.80;99.90;;;;;;5069104;28;20198;-78
2024/01/19 12:44:05;;;;;;;2.53;2.42;;;6.80;99.90;;;;;;5071380;28;20278;-76
2024/01/19 12:46:34;;;;;;;3.03;2.83;;;6.80;99.90;;;;;;5078699;28;20220;-79
2024/01/19 12:49:02;;;;;;;2.55;2.45;;;6.80;99.90;;;;;;5078410;28;20230;-78
2024/01/19 12:51:30;;;;;;;2.75;2.65;;;6.80;99.90;;;;;;5077179;28;21250;-76
2024/01/19 12:53:57;;;;;;;2.65;2.55;;;6.80;99.90;;;;;;5074377;28;20222;-75
2024/01/19 12:56:27;;;;;;;2.45;2.35;;;6.70;99.90;;;;;;5072009;28;20304;-75
2024/01/19 12:59:05;;;;;;;2.40;2.30;;;6.70;99.90;;;;;;5078568;28;20218;-76
2024/01/19 13:01:34;;;;;;;2.47;2.38;;;6.70;99.90;;;;;;5076849;28;20216;-76
2024/01/19 13:04:01;;;;;;;2.17;2.08;;;6.80;99.90;;;;;;5078380;28;20229;-74